Aérodrome :
LOGIN :

S'inscrire | Disclaimer

   EN    FR    IT 

 










Légende :    VFR   VFR Marginal   IFR   IFR Intensif   IFR Très Intensif
Visi : 
Plafond : 
>= 8 km
>= 3000ft
5 à 8 km
1000 à 3000 ft
1500m à 5 km
500 à 1000 ft
800 à 1500m
200 à 500 ft
< 800m
< 200 ft
Symboles :   Orages  Brouillard  Fortes neiges  Fortes précipitations  Vent > 20 kt
SIGMETs :   Divers  Orages  Givrage  Turbulence  Onde Orograph.  Cendres Volcan.







- Altitude de l'aérodrome : 218 ft


EGYD - RAF Cranwell

DERNIER METAR :
  • 200950Z 23018KT 9999 FEW025 20/15 Q1003 TEMPO 6000 SHRA BKN022 RMK BLU TEMPO WHT

METARs EXPIRÉS :
  • 200920Z 23019KT 9999 -SHRA BKN022 19/14 Q1003 BECMG BKN025 RMK WHT BECMG BLU
  • 200850Z 23017KT 9999 BKN018 19/15 Q1003 BECMG BKN025 RMK WHT BECMG BLU
  • 200820Z 23017KT 9999 BKN020 19/15 Q1003 BECMG BKN025 RMK WHT BECMG BLU
  • 200750Z 23017KT 9999 SCT018 19/15 Q1003 TEMPO FEW018 SCT030 RMK WHT TEMPO BLU

TAF TAF EGYD
Valide du 20 à 09h jusqu'au 20 à 17h UTC


200752Z 2009/2017 22015KT 9999 SCT030
TEMPO 2009/2015 6000 SHRA SCT022
BECMG 2010/2012 25018G28KT
PROB30
TEMPO 2011/2014 4000 +SHRA SCT022CB
Pas de NOTAMs connus pour ce terrain.



MET'MAP, la Météo Aéronautique d'un coup d'oeil ! - Copyright ORBIFLY Décembre 2007 - Disclaimer

ORBIFLY MET'MAP TEAM :

Programmation & Développement : Alexandra Zaïnal
Conception & Développement : Baudouin d'Aumeries
Co-Programmation & Développement : Marc-Olivier Méhu
Soutien technique & logistique : Manuel Goepfert

Contact : metmap@orbifly.com




SOURCES & CREDITS :

   NOAA